Terminal Aerodrome Forecast
Issued by NWS

Home | Current Version | Previous Version | Text Only | Print | Product List | Glossary On
Versions: 1 2 3 4 5 6 7 8 9 10 11 12 13 14 15 16 17 18 19 20 21
000
FTUS46 KLOX 222344
TAFVNY
TAF
KVNY 222344Z 2300/2324 35014KT P6SM SKC
     FM230200 36008KT P6SM SKC
     FM231400 36014KT P6SM SKC WS015/06030KT
     FM231700 36015G25KT P6SM SKC WS015/06030KT=

USA.gov is the U.S. government's official web portal to all federal, state and local government web resources and services.